Time;durP1;ratioP1;P1;durP2;ratioP2;P2;SDS_P1;SDS_P2;PMS_P1;PMS_P2;Temp;Humidity;BMP_temperature;BMP_pressure;BME280_temperature;BME280_humidity;BME280_pressure;Samples;Min_cycle;Max_cycle;Signal;HPM_P1;HPM_P2
2021/10/28 00:14:35;;;;;;;;;;;1.80;99.90;;;;;;5090610;28;19920;-75
2021/10/28 00:17:01;;;;;;;;;;;1.70;99.90;;;;;;5094379;28;20282;-75
2021/10/28 00:19:27;;;;;;;;;;;1.50;99.90;;;;;;5093893;28;19960;-75
2021/10/28 00:21:54;;;;;;;;;;;1.50;99.90;;;;;;5093888;28;20403;-75
2021/10/28 00:24:19;;;;;;;;;;;1.50;99.90;;;;;;5075886;28;20264;-75
2021/10/28 00:26:45;;;;;;;;;;;1.50;99.90;;;;;;5091408;28;19919;-75
2021/10/28 00:29:14;;;;;;;;;;;1.40;99.90;;;;;;5087743;28;20277;-75
2021/10/28 00:31:40;;;;;;;;;;;1.30;99.90;;;;;;5093503;28;20007;-75
2021/10/28 00:34:07;;;;;;;;;;;1.20;99.90;;;;;;5093951;28;20342;-75
2021/10/28 00:36:33;;;;;;;;;;;1.30;99.90;;;;;;5093716;28;20439;-75
2021/10/28 00:38:59;;;;;;;;;;;1.20;99.90;;;;;;5093376;28;20273;-75
2021/10/28 00:41:25;;;;;;;;;;;1.20;99.90;;;;;;5092966;28;19991;-75
2021/10/28 00:43:54;;;;;;;;;;;1.20;99.90;;;;;;5093742;28;19908;-75
2021/10/28 00:46:20;;;;;;;;;;;1.30;99.90;;;;;;5093437;28;19916;-75
2021/10/28 00:48:47;;;;;;;;;;;1.30;99.90;;;;;;5093894;28;20304;-75
2021/10/28 00:51:13;;;;;;;;;;;1.20;99.90;;;;;;5093021;28;20278;-76
2021/10/28 00:53:38;;;;;;;;;;;1.20;99.90;;;;;;5093358;28;19944;-76
2021/10/28 00:56:05;;;;;;;;;;;1.20;99.90;;;;;;5074563;28;19955;-75
2021/10/28 00:58:32;;;;;;;;;;;1.20;99.90;;;;;;5083222;28;19915;-76
2021/10/28 01:01:01;;;;;;;;;;;1.30;99.90;;;;;;5093313;28;20011;-75
2021/10/28 01:03:27;;;;;;;;;;;1.30;99.90;;;;;;5075143;28;19908;-77
2021/10/28 01:05:53;;;;;;;;;;;1.30;99.90;;;;;;5093022;28;20007;-76
2021/10/28 01:08:19;;;;;;;;;;;1.30;99.90;;;;;;5093153;28;20417;-77
2021/10/28 01:10:48;;;;;;;;;;;1.20;99.90;;;;;;5085873;28;19982;-75
2021/10/28 01:13:15;;;;;;;;;;;1.20;99.90;;;;;;5093126;28;20394;-75
2021/10/28 01:15:40;;;;;;;;;;;1.10;99.90;;;;;;5092970;28;19908;-75
2021/10/28 01:18:07;;;;;;;;;;;1.20;99.90;;;;;;5074905;28;19915;-75
2021/10/28 01:20:33;;;;;;;;;;;1.20;99.90;;;;;;5092418;28;20282;-75
2021/10/28 01:22:58;;;;;;;;;;;1.10;99.90;;;;;;5092802;28;19919;-75
2021/10/28 01:25:24;;;;;;;;;;;1.20;99.90;;;;;;5092735;28;19965;-75
2021/10/28 01:27:50;;;;;;;;;;;1.10;99.90;;;;;;5085039;28;19978;-75
2021/10/28 01:30:15;;;;;;;;;;;1.00;99.90;;;;;;5068969;28;20355;-75
2021/10/28 01:32:41;;;;;;;;;;;0.90;99.90;;;;;;5092727;28;19908;-75
2021/10/28 01:35:06;;;;;;;;;;;1.00;99.90;;;;;;5092495;28;19961;-75
2021/10/28 01:37:32;;;;;;;;;;;1.00;99.90;;;;;;5092721;28;19908;-75
2021/10/28 01:39:57;;;;;;;;;;;0.90;99.90;;;;;;5092326;28;19908;-77
2021/10/28 01:42:23;;;;;;;;;;;1.00;99.90;;;;;;5092590;28;20041;-75
2021/10/28 01:44:48;;;;;;;;;;;0.90;99.90;;;;;;5092362;28;19924;-75
2021/10/28 01:47:16;;;;;;;;;;;0.90;99.90;;;;;;5092422;28;19912;-75
2021/10/28 01:49:42;;;;;;;;;;;1.00;99.90;;;;;;5073454;28;19916;-75
2021/10/28 01:52:10;;;;;;;;;;;1.20;99.90;;;;;;5091291;28;19908;-75
2021/10/28 01:54:35;;;;;;;;;;;1.40;99.90;;;;;;5092190;28;19908;-75
2021/10/28 01:57:00;;;;;;;;;;;1.70;99.90;;;;;;5089599;28;19962;-75
2021/10/28 01:59:26;;;;;;;;;;;1.70;99.90;;;;;;5091563;28;20282;-77
2021/10/28 02:01:51;;;;;;;;;;;1.70;99.90;;;;;;5092106;28;19957;-75
2021/10/28 02:04:17;;;;;;;;;;;1.90;99.90;;;;;;5091926;28;19919;-75
2021/10/28 02:06:42;;;;;;;;;;;2.20;99.90;;;;;;5091802;28;19912;-76
2021/10/28 02:09:08;;;;;;;;;;;2.50;99.90;;;;;;5091929;28;20389;-75
2021/10/28 02:11:33;;;;;;;;;;;2.70;99.90;;;;;;5091378;28;20332;-75
2021/10/28 02:13:59;;;;;;;;;;;2.70;99.90;;;;;;5073712;28;19908;-75
2021/10/28 02:16:32;;;;;;;;;;;2.70;99.90;;;;;;5091875;28;20384;-76
2021/10/28 02:18:58;;;;;;;;;;;2.70;99.90;;;;;;5091822;28;20003;-75
2021/10/28 02:21:23;;;;;;;;;;;2.30;99.90;;;;;;5073113;28;19908;-75
2021/10/28 02:23:49;;;;;;;;;;;1.80;99.90;;;;;;5091741;28;19916;-75
2021/10/28 02:26:14;;;;;;;;;;;1.60;99.90;;;;;;5091677;28;19947;-75
2021/10/28 02:28:40;;;;;;;;;;;1.40;99.90;;;;;;5087765;28;19908;-75
2021/10/28 02:31:06;;;;;;;;;;;1.50;99.90;;;;;;5073067;28;20267;-75
2021/10/28 02:33:31;;;;;;;;;;;1.40;99.90;;;;;;5091398;28;20329;-75
2021/10/28 02:35:57;;;;;;;;;;;1.20;99.90;;;;;;5073405;28;19962;-77
2021/10/28 02:38:22;;;;;;;;;;;1.10;99.90;;;;;;5091565;28;19947;-75
2021/10/28 02:40:48;;;;;;;;;;;1.10;99.90;;;;;;5073053;28;20416;-75
2021/10/28 02:43:13;;;;;;;;;;;1.20;99.90;;;;;;5091444;28;19908;-75
2021/10/28 02:45:40;;;;;;;;;;;1.10;99.90;;;;;;5091294;28;19920;-75
2021/10/28 02:48:05;;;;;;;;;;;1.00;99.90;;;;;;5091099;28;20386;-76
2021/10/28 02:50:31;;;;;;;;;;;1.20;99.90;;;;;;5090740;28;19908;-75
2021/10/28 02:52:56;;;;;;;;;;;1.20;99.90;;;;;;5091268;28;19915;-75
2021/10/28 02:55:22;;;;;;;;;;;1.10;99.90;;;;;;5091269;28;20389;-76
2021/10/28 02:57:47;;;;;;;;;;;1.20;99.90;;;;;;5090387;28;19969;-75
2021/10/28 03:00:13;;;;;;;;;;;1.20;99.90;;;;;;5086281;28;20102;-75
2021/10/28 03:02:39;;;;;;;;;;;1.30;99.90;;;;;;5090623;28;20267;-75
2021/10/28 03:05:07;;;;;;;;;;;1.50;99.90;;;;;;5091250;28;19912;-75
2021/10/28 03:07:34;;;;;;;;;;;1.40;99.90;;;;;;5091168;28;19999;-75
2021/10/28 03:10:02;;;;;;;;;;;1.60;99.90;;;;;;5090565;28;19916;-75
2021/10/28 03:12:27;;;;;;;;;;;1.60;99.90;;;;;;5091491;28;20373;-75
2021/10/28 03:14:57;;;;;;;;;;;1.60;99.90;;;;;;5072806;28;19912;-75
2021/10/28 03:27:38;;;;;;;;;;;1.40;99.90;;;;;;5087585;28;19912;-76
2021/10/28 03:30:05;;;;;;;;;;;1.60;99.90;;;;;;5090239;28;19930;-76
2021/10/28 03:32:31;;;;;;;;;;;1.80;99.90;;;;;;5090907;28;19915;-77
2021/10/28 03:34:56;;;;;;;;;;;1.90;99.90;;;;;;5090765;28;19923;-75
2021/10/28 04:07:49;;;;;;;;;;;2.90;99.90;;;;;;5090455;28;19970;-75
2021/10/28 04:31:27;;;;;;;;;;;3.40;99.90;;;;;;5088251;28;19914;-76
2021/10/28 04:33:53;;;;;;;;;;;3.50;99.90;;;;;;5093820;28;20011;-75
2021/10/28 04:36:19;;;;;;;;;;;3.70;99.90;;;;;;5093732;28;20424;-75
2021/10/28 04:38:45;;;;;;;;;;;3.60;99.90;;;;;;5093691;28;19908;-75
2021/10/28 04:41:11;;;;;;;;;;;3.70;99.90;;;;;;5093243;28;19912;-76
2021/10/28 04:43:36;;;;;;;;;;;3.80;99.90;;;;;;5093652;28;20324;-76
2021/10/28 04:46:03;;;;;;;;;;;3.80;99.90;;;;;;5093464;28;19918;-75
2021/10/28 04:48:29;;;;;;;;;;;3.80;99.90;;;;;;5093405;28;19920;-76
2021/10/28 04:50:54;;;;;;;;;;;3.90;99.90;;;;;;5092977;28;19912;-77
2021/10/28 04:53:20;;;;;;;;;;;4.10;99.90;;;;;;5093798;28;19995;-75
2021/10/28 04:55:45;;;;;;;;;;;4.20;99.90;;;;;;5093572;28;19908;-75
2021/10/28 04:58:11;;;;;;;;;;;4.30;99.90;;;;;;5090338;28;19909;-76
2021/10/28 05:00:36;;;;;;;;;;;4.40;99.90;;;;;;5092657;28;19946;-76
2021/10/28 05:03:02;;;;;;;;;;;4.50;99.90;;;;;;5075465;28;19912;-76
2021/10/28 05:05:27;;;;;;;;;;;4.50;99.90;;;;;;5093295;28;19912;-77
2021/10/28 05:07:52;;;;;;;;;;;4.40;99.90;;;;;;5093340;28;20006;-76
2021/10/28 05:10:18;;;;;;;;;;;4.30;99.90;;;;;;5094568;28;20460;-77
2021/10/28 05:12:44;;;;;;;;;;;4.30;99.90;;;;;;5093617;28;19909;-74
2021/10/28 05:15:09;;;;;;;;;;;4.20;99.90;;;;;;5093113;28;19915;-74
2021/10/28 05:17:35;;;;;;;;;;;4.30;99.90;;;;;;5092966;28;19915;-73
2021/10/28 05:20:00;;;;;;;;;;;4.30;99.90;;;;;;5092385;28;19955;-75
2021/10/28 05:22:26;;;;;;;;;;;4.20;99.90;;;;;;5092956;28;19908;-75
2021/10/28 05:24:52;;;;;;;;;;;4.10;99.90;;;;;;5092769;28;19957;-75
2021/10/28 05:27:17;;;;;;;;;;;4.10;99.90;;;;;;5090901;28;19915;-73
2021/10/28 05:29:43;;;;;;;;;;;4.00;99.90;;;;;;5089861;28;19965;-77
2021/10/28 05:32:08;;;;;;;;;;;4.00;99.90;;;;;;5092760;28;19912;-76
2021/10/28 05:34:36;;;;;;;;;;;4.00;99.90;;;;;;5092301;28;20328;-76
2021/10/28 05:37:01;;;;;;;;;;;3.90;99.90;;;;;;5092795;28;19908;-75
2021/10/28 05:39:27;;;;;;;;;;;3.90;99.90;;;;;;5092641;28;20551;-76
2021/10/28 05:41:52;;;;;;;;;;;3.80;99.90;;;;;;5092224;28;19908;-76
2021/10/28 05:44:18;;;;;;;;;;;3.80;99.90;;;;;;5092688;28;19951;-76
2021/10/28 05:46:43;;;;;;;;;;;3.80;99.90;;;;;;5092408;28;19916;-76
2021/10/28 05:49:09;;;;;;;;;;;3.90;99.90;;;;;;5092840;28;19998;-76
2021/10/28 05:51:38;;;;;;;;;;;3.80;99.90;;;;;;5092722;28;20279;-75
2021/10/28 05:54:04;;;;;;;;;;;3.80;99.90;;;;;;5092711;28;20185;-77
2021/10/28 05:56:29;;;;;;;;;;;3.80;99.90;;;;;;5089883;28;19912;-76
2021/10/28 05:58:55;;;;;;;;;;;3.80;99.90;;;;;;5074252;28;19958;-76
2021/10/28 06:01:20;;;;;;;;;;;3.80;99.90;;;;;;5073691;28;19915;-76
2021/10/28 06:03:46;;;;;;;;;;;3.70;99.90;;;;;;5090750;28;20420;-75
2021/10/28 06:06:12;;;;;;;;;;;3.80;99.90;;;;;;5087396;28;19919;-76
2021/10/28 06:08:37;;;;;;;;;;;3.80;99.90;;;;;;5064743;28;20329;-76
2021/10/28 06:11:03;;;;;;;;;;;3.70;99.90;;;;;;5091320;28;19951;-76
2021/10/28 06:13:29;;;;;;;;;;;3.80;99.90;;;;;;5092501;28;19912;-75
2021/10/28 06:15:55;;;;;;;;;;;3.90;99.90;;;;;;5089417;28;20378;-75
2021/10/28 06:20:51;;;;;;;;;;;4.00;99.90;;;;;;5091692;28;19912;-76
2021/10/28 06:23:16;;;;;;;;;;;4.10;99.90;;;;;;5092130;28;20015;-76
2021/10/28 06:25:42;;;;;;;;;;;4.10;99.90;;;;;;5084222;28;20418;-76
2021/10/28 06:28:07;;;;;;;;;;;4.10;99.90;;;;;;5089221;28;19908;-76
2021/10/28 06:30:33;;;;;;;;;;;4.20;99.90;;;;;;5091076;28;19909;-76
2021/10/28 06:33:02;;;;;;;;;;;4.20;99.90;;;;;;5088133;28;20366;-75
2021/10/28 06:35:28;;;;;;;;;;;4.30;99.90;;;;;;5060458;28;19908;-76
2021/10/28 06:37:54;;;;;;;;;;;4.30;99.90;;;;;;5089868;28;19908;-76
2021/10/28 06:40:21;;;;;;;;;;;4.30;99.90;;;;;;5093085;28;19933;-76
2021/10/28 06:42:47;;;;;;;;;;;4.30;99.90;;;;;;5091548;28;19908;-74
2021/10/28 06:45:13;;;;;;;;;;;4.20;99.90;;;;;;5091417;28;19919;-76
2021/10/28 06:47:39;;;;;;;;;;;4.10;99.90;;;;;;5069511;28;20557;-76
2021/10/28 06:50:12;;;;;;;;;;;4.00;99.90;;;;;;5088897;28;20000;-76
2021/10/28 06:52:55;;;;;;;;;;;3.80;99.90;;;;;;5091949;28;19908;-75
2021/10/28 07:03:27;;;;;;;;;;;3.50;99.90;;;;;;5093179;28;19915;-75
2021/10/28 07:05:53;;;;;;;;;;;3.60;99.90;;;;;;5092650;28;19912;-75
2021/10/28 07:08:19;;;;;;;;;;;3.70;99.90;;;;;;5092179;28;19912;-75
2021/10/28 07:10:45;;;;;;;;;;;3.70;99.90;;;;;;5092209;28;19920;-76
2021/10/28 07:13:16;;;;;;;;;;;3.60;99.90;;;;;;5092515;28;20318;-76
2021/10/28 07:15:55;;;;;;;;;;;3.60;99.90;;;;;;5075490;28;19908;-76
2021/10/28 07:21:22;;;;;;;;;;;3.90;99.90;;;;;;5091998;28;19915;-76
2021/10/28 07:32:25;;;;;;;;;;;4.30;99.90;;;;;;5091795;28;20366;-75
2021/10/28 07:35:02;;;;;;;;;;;4.30;99.90;;;;;;5084793;28;20009;-75
2021/10/28 08:21:05;;;;;;;;;;;10.50;99.90;;;;;;5093931;28;19959;-77
2021/10/28 08:23:38;;;;;;;;;;;11.80;99.90;;;;;;5094066;28;20290;-75
2021/10/28 08:28:54;;;;;;;;;;;13.60;99.90;;;;;;5086164;28;19931;-73
2021/10/28 08:31:21;;;;;;;;;;;13.80;99.90;;;;;;5093908;28;20185;-74
2021/10/28 08:33:47;;;;;;;;;;;13.80;99.90;;;;;;5090266;28;19908;-77
2021/10/28 08:36:20;;;;;;;;;;;12.10;99.90;;;;;;5093303;28;19914;-77
2021/10/28 08:38:45;;;;;;;;;;;12.00;99.90;;;;;;5075939;28;19918;-75
2021/10/28 08:41:11;;;;;;;;;;;12.70;99.90;;;;;;5093779;28;19908;-75
2021/10/28 08:43:41;;;;;;;;;;;13.10;99.90;;;;;;5093646;28;20366;-75
2021/10/28 08:46:07;;;;;;;;;;;13.60;99.90;;;;;;5093743;28;19912;-73
2021/10/28 08:48:35;;;;;;;;;;;14.60;99.90;;;;;;5093934;28;19909;-75
2021/10/28 08:51:08;;;;;;;;;;;15.50;99.90;;;;;;5093702;28;19915;-77
2021/10/28 08:53:54;;;;;;;;;;;16.00;99.90;;;;;;5094336;28;19943;-77
2021/10/28 08:56:32;;;;;;;;;;;16.10;99.90;;;;;;5091019;28;19916;-77
2021/10/28 09:29:06;;;;;;;;;;;21.00;93.00;;;;;;5089464;28;20347;-75
2021/10/28 09:31:35;;;;;;;;;;;20.70;93.30;;;;;;5073985;28;19908;-75
2021/10/28 09:48:21;;;;;;;;;;;20.60;90.20;;;;;;5092500;28;19916;-75
2021/10/28 09:50:25;;;;;;;;;;;20.00;91.40;;;;;;5077497;28;19998;-75
2021/10/28 09:58:50;;;;;;;;;;;20.40;92.10;;;;;;5084346;28;20003;-75
2021/10/28 10:01:36;;;;;;;;;;;20.90;90.40;;;;;;5084748;28;19908;-74
2021/10/28 10:04:05;;;;;;;;;;;21.40;88.40;;;;;;5086060;28;19908;-75
2021/10/28 10:06:36;;;;;;;;;;;19.80;91.20;;;;;;5091974;28;20390;-75
2021/10/28 10:09:02;;;;;;;;;;;18.30;92.60;;;;;;5092537;28;19915;-75
2021/10/28 10:11:28;;;;;;;;;;;18.30;93.40;;;;;;5091234;28;19916;-75
2021/10/28 10:13:55;;;;;;;;;;;18.20;93.80;;;;;;5090977;28;19954;-75
2021/10/28 10:16:20;;;;;;;;;;;18.90;92.80;;;;;;5092004;28;19912;-75
2021/10/28 10:18:49;;;;;;;;;;;20.00;91.80;;;;;;5092014;28;20094;-75
2021/10/28 10:21:39;;;;;;;;;;;19.20;91.70;;;;;;5072861;28;20405;-74
2021/10/28 10:27:17;;;;;;;;;;;18.60;93.00;;;;;;5083634;28;19916;-75
2021/10/28 11:29:15;;;;;;;;;;;12.50;99.90;;;;;;5087092;28;20362;-75
2021/10/28 12:45:45;;;;;;;;;;;13.20;99.90;;;;;;5093977;28;19946;-75
2021/10/28 12:51:28;;;;;;;;;;;13.60;99.90;;;;;;5093476;28;19923;-75
2021/10/28 12:56:48;;;;;;;;;;;13.10;99.90;;;;;;5093307;28;20015;-75
2021/10/28 13:35:18;;;;;;;;;;;13.20;99.90;;;;;;5050499;28;19912;-76
2021/10/28 13:59:49;;;;;;;;;;;13.40;99.90;;;;;;5088886;28;20328;-76
2021/10/28 14:38:03;;;;;;;;;;;13.00;99.90;;;;;;5054961;28;19908;-77
2021/10/28 15:29:49;;;;;;;;;;;17.10;99.90;;;;;;5090594;28;19919;-76
2021/10/28 15:35:31;;;;;;;;;;;14.00;99.90;;;;;;5090293;28;19908;-76
2021/10/28 15:37:43;;;;;;;;;;;12.70;99.90;;;;;;5076309;28;19915;-76
2021/10/28 15:40:33;;;;;;;;;;;12.00;99.90;;;;;;5072431;28;20403;-76
2021/10/28 15:57:38;;;;;;;;;;;10.40;99.90;;;;;;5090893;28;19915;-76
2021/10/28 16:23:45;;;;;;;;;;;8.80;99.90;;;;;;5094827;28;20274;-76
2021/10/28 16:26:11;;;;;;;;;;;8.70;99.90;;;;;;5092484;28;19912;-76
2021/10/28 16:28:37;;;;;;;;;;;8.70;99.90;;;;;;5089346;28;19917;-76
2021/10/28 16:31:02;;;;;;;;;;;8.50;99.90;;;;;;5088696;28;20379;-76
2021/10/28 16:33:28;;;;;;;;;;;8.50;99.90;;;;;;5075077;28;19919;-76
2021/10/28 16:35:53;;;;;;;;;;;8.40;99.90;;;;;;5075057;28;19915;-75
2021/10/28 16:38:22;;;;;;;;;;;8.30;99.90;;;;;;5074921;28;19912;-76
2021/10/28 16:40:48;;;;;;;;;;;8.10;99.90;;;;;;5074413;28;19939;-75
2021/10/28 16:43:13;;;;;;;;;;;8.10;99.90;;;;;;5088813;28;19998;-75
2021/10/28 16:45:39;;;;;;;;;;;8.00;99.90;;;;;;5093168;28;19916;-75
2021/10/28 16:48:05;;;;;;;;;;;8.00;99.90;;;;;;5093642;28;19915;-74
2021/10/28 16:50:30;;;;;;;;;;;7.90;99.90;;;;;;5093557;28;19909;-74
2021/10/28 16:52:56;;;;;;;;;;;7.70;99.90;;;;;;5093563;28;19908;-76
2021/10/28 16:55:21;;;;;;;;;;;7.60;99.90;;;;;;5075086;28;20355;-75
2021/10/28 16:57:47;;;;;;;;;;;7.40;99.90;;;;;;5083823;28;19961;-75
2021/10/28 17:00:13;;;;;;;;;;;7.30;99.90;;;;;;5090692;28;19912;-75
2021/10/28 17:02:38;;;;;;;;;;;7.40;99.90;;;;;;5075171;28;19914;-75
2021/10/28 17:05:05;;;;;;;;;;;7.40;99.90;;;;;;5093393;28;19908;-75
2021/10/28 17:07:30;;;;;;;;;;;7.40;99.90;;;;;;5086864;28;19912;-75
2021/10/28 17:09:57;;;;;;;;;;;7.40;99.90;;;;;;5074452;28;20350;-75
2021/10/28 17:12:23;;;;;;;;;;;7.50;99.90;;;;;;5093326;28;20366;-75
2021/10/28 17:14:49;;;;;;;;;;;7.30;99.90;;;;;;5093279;28;19912;-75
2021/10/28 17:17:16;;;;;;;;;;;7.20;99.90;;;;;;5093442;28;19909;-76
2021/10/28 17:19:42;;;;;;;;;;;7.00;99.90;;;;;;5092851;28;19999;-75
2021/10/28 17:22:08;;;;;;;;;;;7.00;99.90;;;;;;5092616;28;19915;-75
2021/10/28 17:24:37;;;;;;;;;;;7.00;99.90;;;;;;5093254;28;19909;-75
2021/10/28 17:27:03;;;;;;;;;;;7.00;99.90;;;;;;5089915;28;20453;-75
2021/10/28 17:29:29;;;;;;;;;;;7.00;99.90;;;;;;5088152;28;19919;-75
2021/10/28 17:31:56;;;;;;;;;;;7.00;99.90;;;;;;5092583;28;19908;-75
2021/10/28 17:34:25;;;;;;;;;;;7.00;99.90;;;;;;5092687;28;19908;-75
2021/10/28 17:36:53;;;;;;;;;;;6.90;99.90;;;;;;5092928;28;20356;-75
2021/10/28 17:39:23;;;;;;;;;;;6.90;99.90;;;;;;5074411;28;19909;-75
2021/10/28 17:41:49;;;;;;;;;;;6.70;99.90;;;;;;5092603;28;20417;-75
2021/10/28 17:44:15;;;;;;;;;;;6.60;99.90;;;;;;5092716;28;20359;-75
2021/10/28 17:46:41;;;;;;;;;;;6.60;99.90;;;;;;5092575;28;19912;-75
2021/10/28 17:49:06;;;;;;;;;;;6.50;99.90;;;;;;5092647;28;20311;-75
2021/10/28 17:51:35;;;;;;;;;;;6.40;99.90;;;;;;5092439;28;19908;-74
2021/10/28 17:54:02;;;;;;;;;;;6.20;99.90;;;;;;5092715;28;19912;-75
2021/10/28 17:56:28;;;;;;;;;;;6.10;99.90;;;;;;5089413;28;20397;-75
2021/10/28 17:58:56;;;;;;;;;;;6.10;99.90;;;;;;5085836;28;19938;-75
2021/10/28 18:01:25;;;;;;;;;;;6.10;99.90;;;;;;5090670;28;19961;-76
2021/10/28 18:03:56;;;;;;;;;;;6.20;99.90;;;;;;5092138;28;19915;-75
2021/10/28 18:06:21;;;;;;;;;;;6.20;99.90;;;;;;5092410;28;19912;-76
2021/10/28 18:08:47;;;;;;;;;;;6.10;99.90;;;;;;5092133;28;19930;-75
2021/10/28 18:11:13;;;;;;;;;;;6.30;99.90;;;;;;5091596;28;19958;-75
2021/10/28 18:13:38;;;;;;;;;;;6.30;99.90;;;;;;5092073;28;19951;-76
2021/10/28 18:16:05;;;;;;;;;;;6.30;99.90;;;;;;5091992;28;20282;-75
2021/10/28 18:18:31;;;;;;;;;;;6.30;99.90;;;;;;5092066;28;19931;-75
2021/10/28 18:20:58;;;;;;;;;;;6.30;99.90;;;;;;5091667;28;19912;-76
2021/10/28 18:23:24;;;;;;;;;;;6.50;99.90;;;;;;5091670;28;19957;-76
2021/10/28 18:25:50;;;;;;;;;;;6.70;99.90;;;;;;5073526;28;20321;-75
2021/10/28 18:28:15;;;;;;;;;;;6.70;99.90;;;;;;5086720;28;19908;-75
2021/10/28 18:30:40;;;;;;;;;;;6.60;99.90;;;;;;5088925;28;19948;-75
2021/10/28 18:33:06;;;;;;;;;;;6.50;99.90;;;;;;5091136;28;20363;-75
2021/10/28 18:35:32;;;;;;;;;;;6.20;99.90;;;;;;5073249;28;19998;-75
2021/10/28 18:37:57;;;;;;;;;;;5.80;99.90;;;;;;5091983;28;19914;-75
2021/10/28 18:40:23;;;;;;;;;;;5.60;99.90;;;;;;5073206;28;19908;-76
2021/10/28 18:42:49;;;;;;;;;;;5.70;99.90;;;;;;5091945;28;19908;-76
2021/10/28 18:45:15;;;;;;;;;;;5.70;99.90;;;;;;5092287;28;20018;-76
2021/10/28 18:47:41;;;;;;;;;;;5.50;99.90;;;;;;5073488;28;19912;-77
2021/10/28 18:50:07;;;;;;;;;;;5.40;99.90;;;;;;5091064;28;19915;-76
2021/10/28 18:52:34;;;;;;;;;;;5.30;99.90;;;;;;5091400;28;19908;-77
2021/10/28 18:54:59;;;;;;;;;;;5.20;99.90;;;;;;5091419;28;19908;-75
2021/10/28 18:57:25;;;;;;;;;;;5.10;99.90;;;;;;5071224;28;20045;-76
2021/10/28 18:59:51;;;;;;;;;;;5.10;99.90;;;;;;5085894;28;19993;-76
2021/10/28 19:02:17;;;;;;;;;;;5.10;99.90;;;;;;5091373;28;19908;-76
2021/10/28 19:04:43;;;;;;;;;;;5.00;99.90;;;;;;5091251;28;20316;-75
2021/10/28 19:07:09;;;;;;;;;;;5.00;99.90;;;;;;5090818;28;19912;-76
2021/10/28 19:09:35;;;;;;;;;;;4.90;99.90;;;;;;5091179;28;20393;-76
2021/10/28 19:12:01;;;;;;;;;;;4.90;99.90;;;;;;5073739;28;19912;-76
2021/10/28 19:14:27;;;;;;;;;;;4.90;99.90;;;;;;5091621;28;19908;-76
2021/10/28 19:16:53;;;;;;;;;;;4.90;99.90;;;;;;5091838;28;20288;-76
2021/10/28 19:19:19;;;;;;;;;;;4.90;99.90;;;;;;5091568;28;19908;-76
2021/10/28 19:21:44;;;;;;;;;;;4.90;99.90;;;;;;5073153;28;19953;-75
2021/10/28 19:24:10;;;;;;;;;;;4.90;99.90;;;;;;5091867;28;20444;-76
2021/10/28 19:26:35;;;;;;;;;;;4.80;99.90;;;;;;5089741;28;19919;-76
2021/10/28 19:29:04;;;;;;;;;;;4.70;99.90;;;;;;5092051;28;19915;-76
2021/10/28 19:31:33;;;;;;;;;;;4.70;99.90;;;;;;5090939;28;20374;-76
2021/10/28 19:34:00;;;;;;;;;;;4.60;99.90;;;;;;5091215;28;19951;-76
2021/10/28 19:36:39;;;;;;;;;;;4.60;99.90;;;;;;5091404;28;19936;-76
2021/10/28 19:47:04;;;;;;;;;;;4.60;99.90;;;;;;5088132;28;19919;-76
2021/10/28 19:49:30;;;;;;;;;;;4.50;99.90;;;;;;5070066;28;19912;-75
2021/10/28 19:51:56;;;;;;;;;;;4.50;99.90;;;;;;5094159;28;19908;-75
2021/10/28 19:54:21;;;;;;;;;;;4.50;99.90;;;;;;5095159;28;19908;-75
2021/10/28 19:56:47;;;;;;;;;;;4.30;99.90;;;;;;5072049;28;20279;-76
2021/10/28 19:59:16;;;;;;;;;;;4.30;99.90;;;;;;5093174;28;19908;-76
2021/10/28 20:20:19;;;;;;;;;;;3.80;99.90;;;;;;5051594;28;19927;-75
2021/10/28 20:22:47;;;;;;;;;;;3.60;99.90;;;;;;5075716;28;20057;-75
2021/10/28 20:25:15;;;;;;;;;;;3.50;99.90;;;;;;5093848;28;19908;-75
2021/10/28 20:27:42;;;;;;;;;;;3.40;99.90;;;;;;5091786;28;19919;-75
2021/10/28 20:30:09;;;;;;;;;;;3.60;99.90;;;;;;5087992;28;19909;-75
2021/10/28 20:32:34;;;;;;;;;;;3.60;99.90;;;;;;5093314;28;19912;-75
2021/10/28 20:37:32;;;;;;;;;;;3.70;99.90;;;;;;5093532;28;19908;-75
2021/10/28 20:39:58;;;;;;;;;;;3.80;99.90;;;;;;5093045;28;20205;-76
2021/10/28 20:42:23;;;;;;;;;;;3.80;99.90;;;;;;5090162;28;19912;-75
2021/10/28 20:44:49;;;;;;;;;;;3.90;99.90;;;;;;5093419;28;19962;-75
2021/10/28 20:47:15;;;;;;;;;;;3.70;99.90;;;;;;5093046;28;19912;-75
2021/10/28 20:49:41;;;;;;;;;;;3.60;99.90;;;;;;5074577;28;20480;-75
2021/10/28 20:52:07;;;;;;;;;;;3.50;99.90;;;;;;5093328;28;19908;-75
2021/10/28 20:54:33;;;;;;;;;;;3.50;99.90;;;;;;5093099;28;19947;-74
2021/10/28 20:57:02;;;;;;;;;;;3.70;99.90;;;;;;5089476;28;20339;-75
2021/10/28 20:59:28;;;;;;;;;;;3.80;99.90;;;;;;5090652;28;20360;-75
2021/10/28 21:01:53;;;;;;;;;;;3.70;99.90;;;;;;5074400;28;19999;-76
2021/10/28 21:04:19;;;;;;;;;;;3.60;99.90;;;;;;5074832;28;20393;-75
2021/10/28 21:06:44;;;;;;;;;;;3.50;99.90;;;;;;5074615;28;19948;-75
2021/10/28 21:09:10;;;;;;;;;;;3.40;99.90;;;;;;5074648;28;20010;-76
2021/10/28 21:11:39;;;;;;;;;;;3.20;99.90;;;;;;5074163;28;19923;-75
2021/10/28 21:14:05;;;;;;;;;;;3.30;99.90;;;;;;5092698;28;19908;-75
2021/10/28 21:16:31;;;;;;;;;;;3.30;99.90;;;;;;5092472;28;19978;-76
2021/10/28 21:18:57;;;;;;;;;;;3.10;99.90;;;;;;5092601;28;19909;-76
2021/10/28 21:21:22;;;;;;;;;;;3.20;99.90;;;;;;5074095;28;19953;-75
2021/10/28 21:23:48;;;;;;;;;;;3.40;99.90;;;;;;5074299;28;19908;-75
2021/10/28 21:26:13;;;;;;;;;;;3.40;99.90;;;;;;5091855;28;19912;-75
2021/10/28 21:28:39;;;;;;;;;;;3.50;99.90;;;;;;5087872;28;20064;-75
2021/10/28 21:31:06;;;;;;;;;;;3.50;99.90;;;;;;5087146;28;19912;-76
2021/10/28 21:33:31;;;;;;;;;;;3.40;99.90;;;;;;5092447;28;19962;-76
2021/10/28 21:35:57;;;;;;;;;;;3.60;99.90;;;;;;5092308;28;19909;-76
2021/10/28 21:38:23;;;;;;;;;;;3.50;99.90;;;;;;5072461;28;19908;-76
2021/10/28 21:40:48;;;;;;;;;;;3.30;99.90;;;;;;5091671;28;19908;-75
2021/10/28 21:43:15;;;;;;;;;;;3.20;99.90;;;;;;5092434;28;20408;-76
2021/10/28 21:45:41;;;;;;;;;;;3.20;99.90;;;;;;5073727;28;19916;-76
2021/10/28 21:48:07;;;;;;;;;;;3.10;99.90;;;;;;5092625;28;20278;-75
2021/10/28 21:50:34;;;;;;;;;;;3.30;99.90;;;;;;5074016;28;19915;-76
2021/10/28 21:53:06;;;;;;;;;;;3.40;99.90;;;;;;5074424;28;20152;-76
2021/10/28 22:25:24;;;;;;;;;;;2.80;99.90;;;;;;5091981;28;19973;-75
2021/10/28 22:27:50;;;;;;;;;;;2.70;99.90;;;;;;5088281;28;19912;-76
2021/10/28 22:30:15;;;;;;;;;;;2.80;99.90;;;;;;5090869;28;20456;-76
2021/10/28 22:32:42;;;;;;;;;;;2.50;99.90;;;;;;5092516;28;19993;-75
2021/10/28 22:35:11;;;;;;;;;;;2.40;99.90;;;;;;5091902;28;20355;-75
2021/10/28 22:40:32;;;;;;;;;;;2.40;99.90;;;;;;5091556;28;20003;-76
2021/10/28 22:42:55;;;;;;;;;;;2.30;99.90;;;;;;5091249;28;19998;-75
2021/10/28 22:45:20;;;;;;;;;;;2.30;99.90;;;;;;5091668;28;19956;-75
2021/10/28 22:47:46;;;;;;;;;;;2.20;99.90;;;;;;5091674;28;19908;-76
2021/10/28 22:50:12;;;;;;;;;;;2.10;99.90;;;;;;5091084;28;20388;-76
2021/10/28 22:52:40;;;;;;;;;;;2.00;99.90;;;;;;5091504;28;19916;-76
2021/10/28 22:55:09;;;;;;;;;;;1.90;99.90;;;;;;5073016;28;19916;-75
2021/10/28 23:03:14;;;;;;;;;;;2.20;99.90;;;;;;5091528;28;19908;-75
2021/10/28 23:08:36;;;;;;;;;;;2.40;99.90;;;;;;5091460;28;19962;-76
2021/10/28 23:16:22;;;;;;;;;;;2.30;99.90;;;;;;5091542;28;19908;-76
2021/10/28 23:21:31;;;;;;;;;;;2.60;99.90;;;;;;5090724;28;19919;-76
2021/10/28 23:23:57;;;;;;;;;;;2.80;99.90;;;;;;5091177;28;19908;-76
2021/10/28 23:26:23;;;;;;;;;;;2.90;99.90;;;;;;5088216;28;20040;-75
2021/10/28 23:28:49;;;;;;;;;;;3.00;99.90;;;;;;5079827;28;19908;-75
2021/10/28 23:31:14;;;;;;;;;;;3.00;99.90;;;;;;5072066;28;20010;-75
2021/10/28 23:33:40;;;;;;;;;;;3.00;99.90;;;;;;5091045;28;20438;-76
2021/10/28 23:36:05;;;;;;;;;;;3.00;99.90;;;;;;5091008;28;19918;-76
2021/10/28 23:38:31;;;;;;;;;;;3.10;99.90;;;;;;5091183;28;19908;-75
2021/10/28 23:40:56;;;;;;;;;;;2.70;99.90;;;;;;5090568;28;19908;-76
2021/10/28 23:43:22;;;;;;;;;;;2.20;99.90;;;;;;5091006;28;19954;-76
2021/10/28 23:45:48;;;;;;;;;;;2.00;99.90;;;;;;5091121;28;19916;-76
2021/10/28 23:48:13;;;;;;;;;;;2.10;99.90;;;;;;5090897;28;19908;-76
2021/10/28 23:50:39;;;;;;;;;;;2.40;99.90;;;;;;5090380;28;20029;-75
2021/10/28 23:53:05;;;;;;;;;;;2.10;99.90;;;;;;5090872;28;19905;-76
2021/10/28 23:55:30;;;;;;;;;;;2.00;99.90;;;;;;5090818;28;19914;-76
2021/10/28 23:57:56;;;;;;;;;;;1.70;99.90;;;;;;5085816;28;19908;-76
